sensor_id;sensor_type;location;lat;lon;timestamp;P1;durP1;ratioP1;P2;durP2;ratioP2
3922;SDS011;1976;51.694;6.256;2023-04-09T00:02:24;36.53;;;21.53;;
3922;SDS011;1976;51.694;6.256;2023-04-09T00:04:51;41.10;;;21.80;;
3922;SDS011;1976;51.694;6.256;2023-04-09T00:07:17;37.63;;;21.53;;
3922;SDS011;1976;51.694;6.256;2023-04-09T00:09:42;35.63;;;20.33;;
3922;SDS011;1976;51.694;6.256;2023-04-09T00:12:08;35.67;;;20.03;;
3922;SDS011;1976;51.694;6.256;2023-04-09T00:14:34;44.53;;;22.40;;
3922;SDS011;1976;51.694;6.256;2023-04-09T00:17:00;33.13;;;21.50;;
3922;SDS011;1976;51.694;6.256;2023-04-09T00:19:26;46.43;;;22.77;;
3922;SDS011;1976;51.694;6.256;2023-04-09T00:21:52;40.47;;;23.70;;
3922;SDS011;1976;51.694;6.256;2023-04-09T00:24:18;45.73;;;24.10;;
3922;SDS011;1976;51.694;6.256;2023-04-09T00:26:44;41.00;;;22.83;;
3922;SDS011;1976;51.694;6.256;2023-04-09T00:29:10;42.17;;;20.73;;
3922;SDS011;1976;51.694;6.256;2023-04-09T00:31:36;34.90;;;20.30;;
3922;SDS011;1976;51.694;6.256;2023-04-09T00:34:02;29.13;;;18.77;;
3922;SDS011;1976;51.694;6.256;2023-04-09T00:36:29;37.23;;;19.60;;
3922;SDS011;1976;51.694;6.256;2023-04-09T00:38:55;36.20;;;19.90;;
3922;SDS011;1976;51.694;6.256;2023-04-09T00:41:21;38.07;;;20.73;;
3922;SDS011;1976;51.694;6.256;2023-04-09T00:43:47;35.13;;;19.53;;
3922;SDS011;1976;51.694;6.256;2023-04-09T00:46:13;50.77;;;18.97;;
3922;SDS011;1976;51.694;6.256;2023-04-09T00:48:40;36.30;;;20.20;;
3922;SDS011;1976;51.694;6.256;2023-04-09T00:51:06;33.03;;;19.57;;
3922;SDS011;1976;51.694;6.256;2023-04-09T00:53:32;36.70;;;19.73;;
3922;SDS011;1976;51.694;6.256;2023-04-09T00:55:58;33.57;;;19.70;;
3922;SDS011;1976;51.694;6.256;2023-04-09T00:58:26;34.90;;;19.23;;
3922;SDS011;1976;51.694;6.256;2023-04-09T01:00:52;41.87;;;20.80;;
3922;SDS011;1976;51.694;6.256;2023-04-09T01:03:17;35.00;;;19.67;;
3922;SDS011;1976;51.694;6.256;2023-04-09T01:11:42;36.80;;;19.60;;
3922;SDS011;1976;51.694;6.256;2023-04-09T01:16:57;38.80;;;19.93;;
3922;SDS011;1976;51.694;6.256;2023-04-09T01:19:43;31.47;;;18.03;;
3922;SDS011;1976;51.694;6.256;2023-04-09T01:22:18;43.77;;;20.30;;
3922;SDS011;1976;51.694;6.256;2023-04-09T01:28:14;32.00;;;19.13;;
3922;SDS011;1976;51.694;6.256;2023-04-09T01:30:42;38.13;;;21.17;;
3922;SDS011;1976;51.694;6.256;2023-04-09T01:33:08;39.30;;;20.10;;
3922;SDS011;1976;51.694;6.256;2023-04-09T01:35:35;38.10;;;20.07;;
3922;SDS011;1976;51.694;6.256;2023-04-09T01:38:01;37.67;;;19.30;;
3922;SDS011;1976;51.694;6.256;2023-04-09T01:40:28;39.83;;;21.40;;
3922;SDS011;1976;51.694;6.256;2023-04-09T01:42:54;38.40;;;21.50;;
3922;SDS011;1976;51.694;6.256;2023-04-09T01:45:21;37.30;;;21.80;;
3922;SDS011;1976;51.694;6.256;2023-04-09T01:47:47;33.20;;;19.77;;
3922;SDS011;1976;51.694;6.256;2023-04-09T01:50:14;38.53;;;20.03;;
3922;SDS011;1976;51.694;6.256;2023-04-09T01:52:40;38.13;;;19.90;;
3922;SDS011;1976;51.694;6.256;2023-04-09T01:55:06;38.23;;;20.83;;
3922;SDS011;1976;51.694;6.256;2023-04-09T01:57:32;36.47;;;19.80;;
3922;SDS011;1976;51.694;6.256;2023-04-09T01:59:58;34.87;;;19.93;;
3922;SDS011;1976;51.694;6.256;2023-04-09T02:02:27;35.30;;;19.20;;
3922;SDS011;1976;51.694;6.256;2023-04-09T02:05:13;33.20;;;19.03;;
3922;SDS011;1976;51.694;6.256;2023-04-09T02:10:58;37.60;;;19.67;;
3922;SDS011;1976;51.694;6.256;2023-04-09T02:13:28;31.20;;;18.00;;
3922;SDS011;1976;51.694;6.256;2023-04-09T02:15:55;42.17;;;21.53;;
3922;SDS011;1976;51.694;6.256;2023-04-09T02:18:26;34.70;;;18.13;;
3922;SDS011;1976;51.694;6.256;2023-04-09T02:20:53;33.77;;;18.80;;
3922;SDS011;1976;51.694;6.256;2023-04-09T02:23:19;35.40;;;18.97;;
3922;SDS011;1976;51.694;6.256;2023-04-09T02:25:45;32.40;;;18.70;;
3922;SDS011;1976;51.694;6.256;2023-04-09T02:28:11;30.00;;;18.63;;
3922;SDS011;1976;51.694;6.256;2023-04-09T02:30:37;32.97;;;17.83;;
3922;SDS011;1976;51.694;6.256;2023-04-09T02:33:03;35.30;;;18.93;;
3922;SDS011;1976;51.694;6.256;2023-04-09T02:35:29;45.50;;;21.73;;
3922;SDS011;1976;51.694;6.256;2023-04-09T02:37:55;38.57;;;20.60;;
3922;SDS011;1976;51.694;6.256;2023-04-09T02:40:21;44.60;;;21.70;;
3922;SDS011;1976;51.694;6.256;2023-04-09T02:42:47;35.27;;;19.60;;
3922;SDS011;1976;51.694;6.256;2023-04-09T02:45:13;32.70;;;18.50;;
3922;SDS011;1976;51.694;6.256;2023-04-09T02:47:39;39.20;;;20.27;;
3922;SDS011;1976;51.694;6.256;2023-04-09T02:50:06;40.67;;;19.80;;
3922;SDS011;1976;51.694;6.256;2023-04-09T02:52:32;39.07;;;19.80;;
3922;SDS011;1976;51.694;6.256;2023-04-09T02:54:57;42.97;;;20.67;;
3922;SDS011;1976;51.694;6.256;2023-04-09T02:57:23;34.90;;;18.40;;
3922;SDS011;1976;51.694;6.256;2023-04-09T02:59:49;33.50;;;18.60;;
3922;SDS011;1976;51.694;6.256;2023-04-09T03:02:15;44.43;;;21.20;;
3922;SDS011;1976;51.694;6.256;2023-04-09T03:04:41;33.20;;;18.40;;
3922;SDS011;1976;51.694;6.256;2023-04-09T03:07:07;39.53;;;19.37;;
3922;SDS011;1976;51.694;6.256;2023-04-09T03:09:33;34.20;;;18.47;;
3922;SDS011;1976;51.694;6.256;2023-04-09T03:11:59;33.57;;;20.20;;
3922;SDS011;1976;51.694;6.256;2023-04-09T03:14:26;32.97;;;18.40;;
3922;SDS011;1976;51.694;6.256;2023-04-09T03:16:52;39.50;;;19.73;;
3922;SDS011;1976;51.694;6.256;2023-04-09T03:19:18;34.17;;;19.47;;
3922;SDS011;1976;51.694;6.256;2023-04-09T03:21:44;35.67;;;18.40;;
3922;SDS011;1976;51.694;6.256;2023-04-09T03:24:10;38.60;;;19.60;;
3922;SDS011;1976;51.694;6.256;2023-04-09T03:26:36;35.87;;;16.90;;
3922;SDS011;1976;51.694;6.256;2023-04-09T03:29:02;46.13;;;17.80;;
3922;SDS011;1976;51.694;6.256;2023-04-09T03:31:29;35.50;;;17.47;;
3922;SDS011;1976;51.694;6.256;2023-04-09T03:33:55;29.40;;;17.33;;
3922;SDS011;1976;51.694;6.256;2023-04-09T03:36:21;36.73;;;18.30;;
3922;SDS011;1976;51.694;6.256;2023-04-09T03:38:47;38.80;;;18.57;;
3922;SDS011;1976;51.694;6.256;2023-04-09T03:41:13;32.63;;;17.90;;
3922;SDS011;1976;51.694;6.256;2023-04-09T03:43:39;34.23;;;17.23;;
3922;SDS011;1976;51.694;6.256;2023-04-09T03:46:14;34.70;;;18.13;;
3922;SDS011;1976;51.694;6.256;2023-04-09T03:48:40;48.97;;;18.40;;
3922;SDS011;1976;51.694;6.256;2023-04-09T03:51:13;39.83;;;18.63;;
3922;SDS011;1976;51.694;6.256;2023-04-09T03:53:39;36.80;;;19.63;;
3922;SDS011;1976;51.694;6.256;2023-04-09T03:56:05;40.50;;;16.47;;
3922;SDS011;1976;51.694;6.256;2023-04-09T03:58:31;32.17;;;16.47;;
3922;SDS011;1976;51.694;6.256;2023-04-09T04:00:57;31.00;;;16.30;;
3922;SDS011;1976;51.694;6.256;2023-04-09T04:03:23;29.57;;;16.80;;
3922;SDS011;1976;51.694;6.256;2023-04-09T04:05:49;36.37;;;16.50;;
3922;SDS011;1976;51.694;6.256;2023-04-09T04:08:15;35.17;;;17.50;;
3922;SDS011;1976;51.694;6.256;2023-04-09T04:10:41;38.13;;;18.57;;
3922;SDS011;1976;51.694;6.256;2023-04-09T04:13:07;32.97;;;16.80;;
3922;SDS011;1976;51.694;6.256;2023-04-09T04:15:42;35.00;;;18.50;;
3922;SDS011;1976;51.694;6.256;2023-04-09T04:18:08;35.37;;;17.83;;
3922;SDS011;1976;51.694;6.256;2023-04-09T04:20:34;38.07;;;18.30;;
3922;SDS011;1976;51.694;6.256;2023-04-09T04:23:01;34.73;;;18.17;;
3922;SDS011;1976;51.694;6.256;2023-04-09T04:25:27;39.83;;;18.07;;
3922;SDS011;1976;51.694;6.256;2023-04-09T04:27:53;35.67;;;18.10;;
3922;SDS011;1976;51.694;6.256;2023-04-09T04:30:19;32.30;;;17.00;;
3922;SDS011;1976;51.694;6.256;2023-04-09T04:32:45;36.63;;;18.43;;
3922;SDS011;1976;51.694;6.256;2023-04-09T04:35:11;33.63;;;16.60;;
3922;SDS011;1976;51.694;6.256;2023-04-09T04:37:37;26.97;;;16.63;;
3922;SDS011;1976;51.694;6.256;2023-04-09T04:40:04;44.67;;;17.60;;
3922;SDS011;1976;51.694;6.256;2023-04-09T04:42:31;28.60;;;16.23;;
3922;SDS011;1976;51.694;6.256;2023-04-09T04:44:57;34.23;;;17.20;;
3922;SDS011;1976;51.694;6.256;2023-04-09T04:47:23;27.80;;;16.80;;
3922;SDS011;1976;51.694;6.256;2023-04-09T04:49:49;33.57;;;17.77;;
3922;SDS011;1976;51.694;6.256;2023-04-09T04:52:14;36.10;;;18.00;;
3922;SDS011;1976;51.694;6.256;2023-04-09T04:54:40;43.80;;;18.53;;
3922;SDS011;1976;51.694;6.256;2023-04-09T04:57:06;56.17;;;16.87;;
3922;SDS011;1976;51.694;6.256;2023-04-09T04:59:32;38.43;;;17.93;;
3922;SDS011;1976;51.694;6.256;2023-04-09T05:01:58;41.90;;;18.20;;
3922;SDS011;1976;51.694;6.256;2023-04-09T05:04:24;33.23;;;17.20;;
3922;SDS011;1976;51.694;6.256;2023-04-09T05:06:50;37.30;;;17.80;;
3922;SDS011;1976;51.694;6.256;2023-04-09T05:09:16;42.43;;;20.57;;
3922;SDS011;1976;51.694;6.256;2023-04-09T05:11:42;47.83;;;23.93;;
3922;SDS011;1976;51.694;6.256;2023-04-09T05:14:08;48.53;;;23.30;;
3922;SDS011;1976;51.694;6.256;2023-04-09T05:16:34;36.93;;;21.40;;
3922;SDS011;1976;51.694;6.256;2023-04-09T05:19:00;35.50;;;20.40;;
3922;SDS011;1976;51.694;6.256;2023-04-09T05:21:26;42.03;;;19.77;;
3922;SDS011;1976;51.694;6.256;2023-04-09T05:23:52;45.57;;;20.00;;
3922;SDS011;1976;51.694;6.256;2023-04-09T05:26:18;45.43;;;20.50;;
3922;SDS011;1976;51.694;6.256;2023-04-09T05:28:45;38.30;;;20.10;;
3922;SDS011;1976;51.694;6.256;2023-04-09T05:31:11;42.47;;;20.40;;
3922;SDS011;1976;51.694;6.256;2023-04-09T05:33:38;41.43;;;20.63;;
3922;SDS011;1976;51.694;6.256;2023-04-09T05:36:04;49.30;;;19.93;;
3922;SDS011;1976;51.694;6.256;2023-04-09T05:38:30;46.70;;;18.60;;
3922;SDS011;1976;51.694;6.256;2023-04-09T05:40:56;44.03;;;19.47;;
3922;SDS011;1976;51.694;6.256;2023-04-09T05:43:21;53.10;;;20.20;;
3922;SDS011;1976;51.694;6.256;2023-04-09T05:45:47;46.07;;;20.93;;
3922;SDS011;1976;51.694;6.256;2023-04-09T05:48:13;45.40;;;19.50;;
3922;SDS011;1976;51.694;6.256;2023-04-09T05:50:41;36.80;;;17.57;;
3922;SDS011;1976;51.694;6.256;2023-04-09T05:53:06;34.80;;;18.63;;
3922;SDS011;1976;51.694;6.256;2023-04-09T05:55:32;41.20;;;19.50;;
3922;SDS011;1976;51.694;6.256;2023-04-09T05:57:58;41.17;;;19.70;;
3922;SDS011;1976;51.694;6.256;2023-04-09T06:00:24;41.00;;;19.97;;
3922;SDS011;1976;51.694;6.256;2023-04-09T06:02:50;41.83;;;19.40;;
3922;SDS011;1976;51.694;6.256;2023-04-09T06:05:15;46.33;;;19.07;;
3922;SDS011;1976;51.694;6.256;2023-04-09T06:07:41;39.90;;;19.33;;
3922;SDS011;1976;51.694;6.256;2023-04-09T06:10:08;40.40;;;19.20;;
3922;SDS011;1976;51.694;6.256;2023-04-09T06:12:34;45.50;;;19.90;;
3922;SDS011;1976;51.694;6.256;2023-04-09T06:15:00;42.53;;;19.77;;
3922;SDS011;1976;51.694;6.256;2023-04-09T06:17:25;37.17;;;19.70;;
3922;SDS011;1976;51.694;6.256;2023-04-09T06:19:51;36.10;;;18.57;;
3922;SDS011;1976;51.694;6.256;2023-04-09T06:22:17;37.30;;;18.23;;
3922;SDS011;1976;51.694;6.256;2023-04-09T06:24:43;42.97;;;20.87;;
3922;SDS011;1976;51.694;6.256;2023-04-09T06:27:09;39.13;;;20.37;;
3922;SDS011;1976;51.694;6.256;2023-04-09T06:29:36;41.57;;;19.03;;
3922;SDS011;1976;51.694;6.256;2023-04-09T06:32:02;47.27;;;21.73;;
3922;SDS011;1976;51.694;6.256;2023-04-09T06:34:28;39.50;;;19.80;;
3922;SDS011;1976;51.694;6.256;2023-04-09T06:36:54;47.40;;;21.00;;
3922;SDS011;1976;51.694;6.256;2023-04-09T06:39:23;31.27;;;18.20;;
3922;SDS011;1976;51.694;6.256;2023-04-09T06:41:48;41.43;;;20.70;;
3922;SDS011;1976;51.694;6.256;2023-04-09T06:44:14;40.20;;;20.27;;
3922;SDS011;1976;51.694;6.256;2023-04-09T06:46:40;35.97;;;19.47;;
3922;SDS011;1976;51.694;6.256;2023-04-09T06:49:06;41.40;;;20.07;;
3922;SDS011;1976;51.694;6.256;2023-04-09T06:51:32;46.83;;;21.70;;
3922;SDS011;1976;51.694;6.256;2023-04-09T06:53:58;37.93;;;20.33;;
3922;SDS011;1976;51.694;6.256;2023-04-09T06:56:24;36.10;;;19.60;;
3922;SDS011;1976;51.694;6.256;2023-04-09T06:58:50;41.13;;;19.80;;
3922;SDS011;1976;51.694;6.256;2023-04-09T07:01:16;40.17;;;21.43;;
3922;SDS011;1976;51.694;6.256;2023-04-09T07:03:42;32.73;;;18.10;;
3922;SDS011;1976;51.694;6.256;2023-04-09T07:06:08;32.07;;;18.17;;
3922;SDS011;1976;51.694;6.256;2023-04-09T07:08:34;42.80;;;20.77;;
3922;SDS011;1976;51.694;6.256;2023-04-09T07:11:00;42.20;;;20.20;;
3922;SDS011;1976;51.694;6.256;2023-04-09T07:13:27;40.53;;;16.83;;
3922;SDS011;1976;51.694;6.256;2023-04-09T07:15:53;36.00;;;19.97;;
3922;SDS011;1976;51.694;6.256;2023-04-09T07:18:19;35.70;;;19.53;;
3922;SDS011;1976;51.694;6.256;2023-04-09T07:20:45;34.50;;;18.17;;
3922;SDS011;1976;51.694;6.256;2023-04-09T07:23:11;41.43;;;19.37;;
3922;SDS011;1976;51.694;6.256;2023-04-09T07:25:37;33.27;;;19.57;;
3922;SDS011;1976;51.694;6.256;2023-04-09T07:28:03;32.10;;;16.73;;
3922;SDS011;1976;51.694;6.256;2023-04-09T07:30:29;28.90;;;15.73;;
3922;SDS011;1976;51.694;6.256;2023-04-09T07:32:55;35.03;;;18.40;;
3922;SDS011;1976;51.694;6.256;2023-04-09T07:35:21;38.60;;;19.70;;
3922;SDS011;1976;51.694;6.256;2023-04-09T07:37:47;33.83;;;19.90;;
3922;SDS011;1976;51.694;6.256;2023-04-09T07:40:13;31.93;;;18.30;;
3922;SDS011;1976;51.694;6.256;2023-04-09T07:42:40;33.53;;;18.93;;
3922;SDS011;1976;51.694;6.256;2023-04-09T07:45:06;34.47;;;17.70;;
3922;SDS011;1976;51.694;6.256;2023-04-09T07:47:32;33.13;;;16.53;;
3922;SDS011;1976;51.694;6.256;2023-04-09T07:49:58;29.97;;;18.33;;
3922;SDS011;1976;51.694;6.256;2023-04-09T07:52:23;30.40;;;17.60;;
3922;SDS011;1976;51.694;6.256;2023-04-09T07:54:50;39.20;;;18.27;;
3922;SDS011;1976;51.694;6.256;2023-04-09T07:57:16;35.03;;;18.50;;
3922;SDS011;1976;51.694;6.256;2023-04-09T07:59:42;28.07;;;17.17;;
3922;SDS011;1976;51.694;6.256;2023-04-09T08:02:08;29.60;;;16.50;;
3922;SDS011;1976;51.694;6.256;2023-04-09T08:04:34;29.00;;;16.60;;
3922;SDS011;1976;51.694;6.256;2023-04-09T08:07:00;27.30;;;14.57;;
3922;SDS011;1976;51.694;6.256;2023-04-09T08:09:26;34.63;;;16.10;;
3922;SDS011;1976;51.694;6.256;2023-04-09T08:11:52;27.63;;;15.50;;
3922;SDS011;1976;51.694;6.256;2023-04-09T08:14:18;27.70;;;15.17;;
3922;SDS011;1976;51.694;6.256;2023-04-09T08:16:45;23.13;;;12.40;;
3922;SDS011;1976;51.694;6.256;2023-04-09T08:19:11;23.87;;;13.80;;
3922;SDS011;1976;51.694;6.256;2023-04-09T08:21:38;23.87;;;12.50;;
3922;SDS011;1976;51.694;6.256;2023-04-09T08:24:07;27.13;;;14.67;;
3922;SDS011;1976;51.694;6.256;2023-04-09T08:26:35;20.83;;;11.40;;
3922;SDS011;1976;51.694;6.256;2023-04-09T08:29:04;24.10;;;13.97;;
3922;SDS011;1976;51.694;6.256;2023-04-09T08:31:30;21.80;;;13.97;;
3922;SDS011;1976;51.694;6.256;2023-04-09T08:33:56;26.50;;;14.80;;
3922;SDS011;1976;51.694;6.256;2023-04-09T08:36:22;22.90;;;13.20;;
3922;SDS011;1976;51.694;6.256;2023-04-09T08:38:48;26.97;;;15.33;;
3922;SDS011;1976;51.694;6.256;2023-04-09T08:41:21;28.70;;;14.80;;
3922;SDS011;1976;51.694;6.256;2023-04-09T08:43:49;33.13;;;15.50;;
3922;SDS011;1976;51.694;6.256;2023-04-09T08:46:16;25.57;;;13.70;;
3922;SDS011;1976;51.694;6.256;2023-04-09T08:48:43;32.93;;;14.30;;
3922;SDS011;1976;51.694;6.256;2023-04-09T08:51:13;19.30;;;12.90;;
3922;SDS011;1976;51.694;6.256;2023-04-09T08:53:41;21.63;;;13.23;;
3922;SDS011;1976;51.694;6.256;2023-04-09T08:56:19;25.03;;;14.20;;
3922;SDS011;1976;51.694;6.256;2023-04-09T08:58:46;19.17;;;13.33;;
3922;SDS011;1976;51.694;6.256;2023-04-09T09:01:22;20.73;;;12.03;;
3922;SDS011;1976;51.694;6.256;2023-04-09T09:03:55;21.20;;;12.00;;
3922;SDS011;1976;51.694;6.256;2023-04-09T09:06:25;21.47;;;13.20;;
3922;SDS011;1976;51.694;6.256;2023-04-09T09:11:28;25.07;;;13.43;;
3922;SDS011;1976;51.694;6.256;2023-04-09T09:14:01;24.20;;;14.20;;
3922;SDS011;1976;51.694;6.256;2023-04-09T09:16:27;26.70;;;14.20;;
3922;SDS011;1976;51.694;6.256;2023-04-09T09:18:53;22.47;;;12.53;;
3922;SDS011;1976;51.694;6.256;2023-04-09T09:21:21;18.67;;;12.90;;
3922;SDS011;1976;51.694;6.256;2023-04-09T09:23:47;22.33;;;13.00;;
3922;SDS011;1976;51.694;6.256;2023-04-09T09:26:15;17.27;;;11.87;;
3922;SDS011;1976;51.694;6.256;2023-04-09T09:28:43;20.87;;;13.07;;
3922;SDS011;1976;51.694;6.256;2023-04-09T09:31:11;17.67;;;11.90;;
3922;SDS011;1976;51.694;6.256;2023-04-09T09:33:37;17.70;;;11.27;;
3922;SDS011;1976;51.694;6.256;2023-04-09T09:36:03;17.80;;;12.00;;
3922;SDS011;1976;51.694;6.256;2023-04-09T09:38:29;17.30;;;10.90;;
3922;SDS011;1976;51.694;6.256;2023-04-09T09:40:56;16.37;;;11.73;;
3922;SDS011;1976;51.694;6.256;2023-04-09T09:43:22;16.67;;;11.63;;
3922;SDS011;1976;51.694;6.256;2023-04-09T09:45:48;14.73;;;10.63;;
3922;SDS011;1976;51.694;6.256;2023-04-09T09:48:14;14.63;;;9.83;;
3922;SDS011;1976;51.694;6.256;2023-04-09T09:50:40;10.27;;;8.40;;
3922;SDS011;1976;51.694;6.256;2023-04-09T09:53:07;13.10;;;9.30;;
3922;SDS011;1976;51.694;6.256;2023-04-09T09:55:38;8.30;;;6.33;;
3922;SDS011;1976;51.694;6.256;2023-04-09T09:58:11;11.07;;;7.70;;
3922;SDS011;1976;51.694;6.256;2023-04-09T10:00:40;13.77;;;8.50;;
3922;SDS011;1976;51.694;6.256;2023-04-09T10:03:09;11.13;;;7.40;;
3922;SDS011;1976;51.694;6.256;2023-04-09T10:05:39;11.63;;;6.97;;
3922;SDS011;1976;51.694;6.256;2023-04-09T10:08:05;8.97;;;6.60;;
3922;SDS011;1976;51.694;6.256;2023-04-09T10:10:32;16.73;;;8.90;;
3922;SDS011;1976;51.694;6.256;2023-04-09T10:12:58;14.07;;;8.67;;
3922;SDS011;1976;51.694;6.256;2023-04-09T10:15:25;15.70;;;9.67;;
3922;SDS011;1976;51.694;6.256;2023-04-09T10:17:53;15.23;;;10.13;;
3922;SDS011;1976;51.694;6.256;2023-04-09T10:20:23;15.20;;;9.33;;
3922;SDS011;1976;51.694;6.256;2023-04-09T10:22:51;15.83;;;10.47;;
3922;SDS011;1976;51.694;6.256;2023-04-09T10:25:17;12.90;;;8.60;;
3922;SDS011;1976;51.694;6.256;2023-04-09T10:27:43;13.77;;;7.60;;
3922;SDS011;1976;51.694;6.256;2023-04-09T10:30:29;14.43;;;9.43;;
3922;SDS011;1976;51.694;6.256;2023-04-09T10:33:08;8.60;;;5.80;;
3922;SDS011;1976;51.694;6.256;2023-04-09T10:35:35;16.80;;;9.00;;
3922;SDS011;1976;51.694;6.256;2023-04-09T10:38:01;19.87;;;9.90;;
3922;SDS011;1976;51.694;6.256;2023-04-09T10:40:27;12.67;;;9.20;;
3922;SDS011;1976;51.694;6.256;2023-04-09T10:42:56;17.17;;;9.70;;
3922;SDS011;1976;51.694;6.256;2023-04-09T10:45:22;9.77;;;6.20;;
3922;SDS011;1976;51.694;6.256;2023-04-09T10:47:50;8.53;;;6.17;;
3922;SDS011;1976;51.694;6.256;2023-04-09T10:50:21;10.60;;;5.53;;
3922;SDS011;1976;51.694;6.256;2023-04-09T10:52:51;10.17;;;6.40;;
3922;SDS011;1976;51.694;6.256;2023-04-09T10:58:10;7.90;;;6.50;;
3922;SDS011;1976;51.694;6.256;2023-04-09T11:00:40;9.83;;;6.00;;
3922;SDS011;1976;51.694;6.256;2023-04-09T11:05:57;10.50;;;6.67;;
3922;SDS011;1976;51.694;6.256;2023-04-09T11:08:33;8.93;;;6.43;;
3922;SDS011;1976;51.694;6.256;2023-04-09T11:10:59;7.47;;;5.70;;
3922;SDS011;1976;51.694;6.256;2023-04-09T11:13:26;8.60;;;5.37;;
3922;SDS011;1976;51.694;6.256;2023-04-09T11:15:52;10.60;;;6.77;;
3922;SDS011;1976;51.694;6.256;2023-04-09T11:18:19;9.17;;;6.63;;
3922;SDS011;1976;51.694;6.256;2023-04-09T11:20:46;3.63;;;3.00;;
3922;SDS011;1976;51.694;6.256;2023-04-09T11:23:12;6.17;;;4.63;;
3922;SDS011;1976;51.694;6.256;2023-04-09T11:25:39;6.13;;;4.10;;
3922;SDS011;1976;51.694;6.256;2023-04-09T11:28:05;13.30;;;6.77;;
3922;SDS011;1976;51.694;6.256;2023-04-09T11:30:32;8.50;;;5.27;;
3922;SDS011;1976;51.694;6.256;2023-04-09T11:32:58;5.63;;;3.67;;
3922;SDS011;1976;51.694;6.256;2023-04-09T11:35:25;14.90;;;5.93;;
3922;SDS011;1976;51.694;6.256;2023-04-09T11:37:51;4.83;;;3.73;;
3922;SDS011;1976;51.694;6.256;2023-04-09T11:40:22;9.17;;;6.23;;
3922;SDS011;1976;51.694;6.256;2023-04-09T11:42:49;7.63;;;4.47;;
3922;SDS011;1976;51.694;6.256;2023-04-09T11:45:15;5.70;;;4.30;;
3922;SDS011;1976;51.694;6.256;2023-04-09T11:47:42;23.73;;;6.70;;
3922;SDS011;1976;51.694;6.256;2023-04-09T11:50:08;8.57;;;6.50;;
3922;SDS011;1976;51.694;6.256;2023-04-09T11:52:35;6.40;;;4.27;;
3922;SDS011;1976;51.694;6.256;2023-04-09T11:55:01;6.60;;;5.30;;
3922;SDS011;1976;51.694;6.256;2023-04-09T11:57:44;9.23;;;6.13;;
3922;SDS011;1976;51.694;6.256;2023-04-09T12:00:14;9.50;;;5.97;;
3922;SDS011;1976;51.694;6.256;2023-04-09T12:02:47;8.63;;;4.67;;
3922;SDS011;1976;51.694;6.256;2023-04-09T12:05:46;5.77;;;4.10;;
3922;SDS011;1976;51.694;6.256;2023-04-09T12:08:09;8.37;;;6.53;;
3922;SDS011;1976;51.694;6.256;2023-04-09T12:10:36;23.20;;;5.60;;
3922;SDS011;1976;51.694;6.256;2023-04-09T12:13:04;8.97;;;6.07;;
3922;SDS011;1976;51.694;6.256;2023-04-09T12:15:34;6.10;;;5.00;;
3922;SDS011;1976;51.694;6.256;2023-04-09T12:18:01;7.83;;;4.70;;
3922;SDS011;1976;51.694;6.256;2023-04-09T12:20:31;5.07;;;3.83;;
3922;SDS011;1976;51.694;6.256;2023-04-09T12:22:58;7.93;;;5.13;;
3922;SDS011;1976;51.694;6.256;2023-04-09T12:25:26;7.47;;;5.40;;
3922;SDS011;1976;51.694;6.256;2023-04-09T12:27:52;4.47;;;3.97;;
3922;SDS011;1976;51.694;6.256;2023-04-09T12:30:19;5.70;;;4.13;;
3922;SDS011;1976;51.694;6.256;2023-04-09T12:32:45;9.83;;;6.00;;
3922;SDS011;1976;51.694;6.256;2023-04-09T12:35:12;7.23;;;6.10;;
3922;SDS011;1976;51.694;6.256;2023-04-09T12:37:38;7.27;;;5.50;;
3922;SDS011;1976;51.694;6.256;2023-04-09T12:40:03;7.33;;;4.90;;
3922;SDS011;1976;51.694;6.256;2023-04-09T12:42:30;6.87;;;5.60;;
3922;SDS011;1976;51.694;6.256;2023-04-09T12:44:55;10.03;;;5.43;;
3922;SDS011;1976;51.694;6.256;2023-04-09T12:47:21;5.50;;;4.20;;
3922;SDS011;1976;51.694;6.256;2023-04-09T12:49:47;8.87;;;6.57;;
3922;SDS011;1976;51.694;6.256;2023-04-09T12:52:14;7.07;;;5.27;;
3922;SDS011;1976;51.694;6.256;2023-04-09T12:54:42;8.63;;;5.47;;
3922;SDS011;1976;51.694;6.256;2023-04-09T12:57:08;7.00;;;4.50;;
3922;SDS011;1976;51.694;6.256;2023-04-09T12:59:33;5.30;;;3.47;;
3922;SDS011;1976;51.694;6.256;2023-04-09T13:01:59;6.60;;;4.77;;
3922;SDS011;1976;51.694;6.256;2023-04-09T13:04:26;7.30;;;5.03;;
3922;SDS011;1976;51.694;6.256;2023-04-09T13:06:52;6.17;;;4.30;;
3922;SDS011;1976;51.694;6.256;2023-04-09T13:09:17;7.13;;;4.13;;
3922;SDS011;1976;51.694;6.256;2023-04-09T13:11:43;13.93;;;3.83;;
3922;SDS011;1976;51.694;6.256;2023-04-09T13:14:09;6.67;;;3.50;;
3922;SDS011;1976;51.694;6.256;2023-04-09T13:16:38;6.70;;;5.13;;
3922;SDS011;1976;51.694;6.256;2023-04-09T13:19:05;6.53;;;4.83;;
3922;SDS011;1976;51.694;6.256;2023-04-09T13:21:31;4.90;;;4.13;;
3922;SDS011;1976;51.694;6.256;2023-04-09T13:23:57;6.63;;;4.73;;
3922;SDS011;1976;51.694;6.256;2023-04-09T13:26:23;4.13;;;3.70;;
3922;SDS011;1976;51.694;6.256;2023-04-09T13:28:49;11.67;;;6.00;;
3922;SDS011;1976;51.694;6.256;2023-04-09T13:31:17;8.87;;;6.03;;
3922;SDS011;1976;51.694;6.256;2023-04-09T13:33:42;4.87;;;2.77;;
3922;SDS011;1976;51.694;6.256;2023-04-09T13:36:08;8.63;;;4.57;;
3922;SDS011;1976;51.694;6.256;2023-04-09T13:38:34;5.37;;;3.93;;
3922;SDS011;1976;51.694;6.256;2023-04-09T13:41:00;5.70;;;4.70;;
3922;SDS011;1976;51.694;6.256;2023-04-09T13:43:26;12.30;;;4.20;;
3922;SDS011;1976;51.694;6.256;2023-04-09T13:45:53;4.20;;;2.70;;
3922;SDS011;1976;51.694;6.256;2023-04-09T13:48:19;11.27;;;5.90;;
3922;SDS011;1976;51.694;6.256;2023-04-09T13:50:46;4.00;;;3.30;;
3922;SDS011;1976;51.694;6.256;2023-04-09T13:53:12;4.10;;;2.90;;
3922;SDS011;1976;51.694;6.256;2023-04-09T13:55:38;11.07;;;5.93;;
3922;SDS011;1976;51.694;6.256;2023-04-09T13:58:04;6.00;;;4.37;;
3922;SDS011;1976;51.694;6.256;2023-04-09T14:00:30;4.60;;;3.50;;
3922;SDS011;1976;51.694;6.256;2023-04-09T14:02:57;5.50;;;3.60;;
3922;SDS011;1976;51.694;6.256;2023-04-09T14:05:23;10.57;;;5.93;;
3922;SDS011;1976;51.694;6.256;2023-04-09T14:07:49;7.57;;;6.17;;
3922;SDS011;1976;51.694;6.256;2023-04-09T14:10:15;7.70;;;4.40;;
3922;SDS011;1976;51.694;6.256;2023-04-09T14:12:41;5.00;;;3.90;;
3922;SDS011;1976;51.694;6.256;2023-04-09T14:15:07;6.60;;;4.80;;
3922;SDS011;1976;51.694;6.256;2023-04-09T14:17:34;8.30;;;5.80;;
3922;SDS011;1976;51.694;6.256;2023-04-09T14:20:00;9.53;;;4.13;;
3922;SDS011;1976;51.694;6.256;2023-04-09T14:22:27;11.60;;;5.50;;
3922;SDS011;1976;51.694;6.256;2023-04-09T14:24:54;5.63;;;4.13;;
3922;SDS011;1976;51.694;6.256;2023-04-09T14:27:19;7.43;;;5.70;;
3922;SDS011;1976;51.694;6.256;2023-04-09T14:29:46;7.83;;;4.40;;
3922;SDS011;1976;51.694;6.256;2023-04-09T14:32:12;5.97;;;4.40;;
3922;SDS011;1976;51.694;6.256;2023-04-09T14:34:38;7.67;;;5.40;;
3922;SDS011;1976;51.694;6.256;2023-04-09T14:37:03;8.63;;;5.67;;
3922;SDS011;1976;51.694;6.256;2023-04-09T14:39:29;6.33;;;5.10;;
3922;SDS011;1976;51.694;6.256;2023-04-09T14:41:55;7.60;;;5.50;;
3922;SDS011;1976;51.694;6.256;2023-04-09T14:44:21;4.83;;;4.07;;
3922;SDS011;1976;51.694;6.256;2023-04-09T14:46:50;5.03;;;3.83;;
3922;SDS011;1976;51.694;6.256;2023-04-09T14:49:18;6.93;;;4.83;;
3922;SDS011;1976;51.694;6.256;2023-04-09T14:51:44;3.63;;;2.70;;
3922;SDS011;1976;51.694;6.256;2023-04-09T14:54:10;4.30;;;3.63;;
3922;SDS011;1976;51.694;6.256;2023-04-09T14:56:36;8.53;;;5.63;;
3922;SDS011;1976;51.694;6.256;2023-04-09T14:59:02;7.93;;;5.13;;
3922;SDS011;1976;51.694;6.256;2023-04-09T15:01:28;8.33;;;6.03;;
3922;SDS011;1976;51.694;6.256;2023-04-09T15:03:54;8.60;;;4.87;;
3922;SDS011;1976;51.694;6.256;2023-04-09T15:06:20;8.53;;;5.63;;
3922;SDS011;1976;51.694;6.256;2023-04-09T15:08:46;8.77;;;6.27;;
3922;SDS011;1976;51.694;6.256;2023-04-09T15:11:15;8.33;;;5.80;;
3922;SDS011;1976;51.694;6.256;2023-04-09T15:13:41;12.00;;;6.50;;
3922;SDS011;1976;51.694;6.256;2023-04-09T15:16:07;8.07;;;6.00;;
3922;SDS011;1976;51.694;6.256;2023-04-09T15:18:33;7.93;;;4.70;;